Pisgah, Ohio
Current Conditions -  °F | °C
As of 6:53 PM on Monday 20 Oct 2014 (Local Time) from KHAO Reporting Station
Broken Clouds Broken Clouds  
Wind Chill: 58°   Ceiling: 4900
Heat Index: 58°   Visibility: 10mi
Dew Point: 52°   Wind: 5mph
Humidity: 81%   Direction: 240°WSW
Pressure: 29.88"   Gusts: NA
Location:  39.3413°N, 84.4053°W
Report Text: KHAO 202253Z AUTO 24004KT 10SM SCT042 BKN049 14/11 A2988 RMK AO2 SLP118 T01440111
Loading
Personal Weather Stations






























Interactive Weather Map
Tropical Storm Tracking
New forecast layout! Learn more

10-Day Weather Forecast

Advertisements
Track Severe Weather on mobile